Time;durP1;ratioP1;P1;durP2;ratioP2;P2;SDS_P1;SDS_P2;PMS_P1;PMS_P2;Temp;Humidity;BMP_temperature;BMP_pressure;BME280_temperature;BME280_humidity;BME280_pressure;Samples;Min_cycle;Max_cycle;Signal;HPM_P1;HPM_P2
2023/04/08 00:00:36;;;;;;;7.55;4.00;;;9.90;91.90;;;;;;5072530;28;20028;-71
2023/04/08 00:03:02;;;;;;;7.03;3.83;;;9.80;92.00;;;;;;5073218;28;20032;-71
2023/04/08 00:05:28;;;;;;;6.45;4.18;;;9.90;91.90;;;;;;5072587;28;20369;-72
2023/04/08 00:07:54;;;;;;;6.35;4.10;;;9.80;92.20;;;;;;5073055;28;20063;-72
2023/04/08 00:10:21;;;;;;;6.25;3.80;;;10.00;91.60;;;;;;5072841;28;20470;-72
2023/04/08 00:12:47;;;;;;;7.05;3.70;;;9.90;91.90;;;;;;5072790;28;20116;-72
2023/04/08 00:15:13;;;;;;;6.25;3.85;;;9.90;92.00;;;;;;5073197;28;20039;-71
2023/04/08 00:17:41;;;;;;;7.47;3.63;;;9.90;92.00;;;;;;5072768;28;20032;-72
2023/04/08 00:20:07;;;;;;;6.97;3.92;;;9.90;91.80;;;;;;5072722;28;20025;-72
2023/04/08 00:22:33;;;;;;;6.43;3.75;;;9.90;91.90;;;;;;5072837;28;20041;-72
2023/04/08 00:24:58;;;;;;;6.18;3.72;;;9.90;92.00;;;;;;5072343;28;20021;-72
2023/04/08 00:27:24;;;;;;;6.88;4.05;;;10.00;91.50;;;;;;5073000;28;20029;-71
2023/04/08 00:29:50;;;;;;;7.22;3.90;;;9.90;91.90;;;;;;5072548;28;20043;-71
2023/04/08 00:32:16;;;;;;;6.63;4.13;;;9.90;92.30;;;;;;5072796;28;20037;-72
2023/04/08 00:34:42;;;;;;;6.10;3.80;;;9.90;92.10;;;;;;5072503;28;20470;-72
2023/04/08 00:37:08;;;;;;;7.45;3.80;;;9.90;92.00;;;;;;5072531;28;20382;-72
2023/04/08 00:39:33;;;;;;;10.05;4.38;;;9.90;91.80;;;;;;5072517;28;20040;-71
2023/04/08 00:42:00;;;;;;;6.53;4.28;;;9.90;92.10;;;;;;5072154;28;20419;-72
2023/04/08 00:44:26;;;;;;;8.48;4.20;;;9.90;92.20;;;;;;5071078;28;20076;-72
2023/04/08 00:46:52;;;;;;;6.95;4.15;;;10.00;91.40;;;;;;5072117;28;20036;-71
2023/04/08 00:49:18;;;;;;;6.60;3.80;;;10.00;91.40;;;;;;5072133;28;20357;-71
2023/04/08 00:51:44;;;;;;;8.20;4.45;;;10.00;91.30;;;;;;5072176;28;20138;-71
2023/04/08 00:54:10;;;;;;;8.65;4.18;;;10.00;91.60;;;;;;5072427;28;20030;-72
2023/04/08 00:56:37;;;;;;;7.03;3.72;;;9.90;92.30;;;;;;5072096;28;20056;-71
2023/04/08 00:59:04;;;;;;;6.70;3.58;;;9.90;92.20;;;;;;5071949;28;20036;-72
2023/04/08 01:01:43;;;;;;;8.57;4.13;;;9.90;92.20;;;;;;5070701;28;20046;-71
2023/04/08 01:04:30;;;;;;;7.65;4.22;;;9.90;92.30;;;;;;5071894;28;20092;-71
2023/04/08 01:07:07;;;;;;;7.40;4.30;;;10.00;91.70;;;;;;5071573;28;20123;-71
2023/04/08 01:09:37;;;;;;;8.35;3.95;;;10.00;91.70;;;;;;5072043;28;20031;-71
2023/04/08 01:12:06;;;;;;;6.82;3.97;;;9.90;92.30;;;;;;5071673;28;20172;-71
2023/04/08 01:14:37;;;;;;;7.70;4.45;;;9.90;92.60;;;;;;5071470;28;20057;-70
2023/04/08 01:17:04;;;;;;;5.80;3.72;;;9.90;92.70;;;;;;5070359;28;20048;-71
2023/04/08 01:19:34;;;;;;;9.52;4.53;;;9.90;92.90;;;;;;5071445;28;20457;-71
2023/04/08 01:22:09;;;;;;;7.53;4.13;;;9.90;92.60;;;;;;5070219;28;20059;-71
2023/04/08 01:24:39;;;;;;;6.57;4.32;;;9.90;92.80;;;;;;5071749;28;20451;-71
2023/04/08 01:27:06;;;;;;;9.82;4.97;;;9.90;92.90;;;;;;5071256;28;20036;-71
2023/04/08 01:29:33;;;;;;;6.70;4.43;;;9.90;92.90;;;;;;5071578;28;20031;-71
2023/04/08 01:32:00;;;;;;;9.15;4.68;;;9.80;93.00;;;;;;5071302;28;20067;-72
2023/04/08 01:34:28;;;;;;;8.30;4.70;;;9.80;93.10;;;;;;5071126;28;20020;-72
2023/04/08 01:36:54;;;;;;;7.35;4.75;;;9.90;92.90;;;;;;5070823;28;20020;-72
2023/04/08 01:39:21;;;;;;;8.70;4.93;;;9.80;93.10;;;;;;5070453;28;20071;-72
2023/04/08 01:41:52;;;;;;;10.38;5.30;;;9.80;93.00;;;;;;5071202;28;20064;-72
2023/04/08 01:44:19;;;;;;;8.13;4.50;;;9.80;93.00;;;;;;5071084;28;20025;-71
2023/04/08 01:46:47;;;;;;;9.43;4.93;;;9.80;93.40;;;;;;5071081;28;20090;-70
2023/04/08 01:49:15;;;;;;;7.70;4.50;;;9.70;93.20;;;;;;5070743;28;20028;-70
2023/04/08 01:51:42;;;;;;;8.97;4.23;;;9.80;93.10;;;;;;5071151;28;20111;-69
2023/04/08 01:54:07;;;;;;;9.93;4.65;;;9.80;93.20;;;;;;5070896;28;20322;-70
2023/04/08 01:56:40;;;;;;;8.23;4.85;;;9.80;93.40;;;;;;5070795;28;20040;-72
2023/04/08 01:59:10;;;;;;;7.57;4.50;;;9.80;93.40;;;;;;5070920;28;20120;-71
2023/04/08 02:01:37;;;;;;;13.30;5.00;;;9.80;93.40;;;;;;5071154;28;20040;-71
2023/04/08 02:04:03;;;;;;;8.82;4.45;;;9.70;93.30;;;;;;5071125;28;20434;-71
2023/04/08 02:06:30;;;;;;;7.70;4.50;;;9.70;93.40;;;;;;5070286;28;20119;-71
2023/04/08 02:08:58;;;;;;;7.75;4.50;;;9.70;93.70;;;;;;5069767;28;20078;-72
2023/04/08 02:11:24;;;;;;;7.10;3.88;;;9.70;93.60;;;;;;5069449;28;20047;-70
2023/04/08 02:13:51;;;;;;;7.88;4.82;;;9.60;93.90;;;;;;5069511;28;20036;-71
2023/04/08 02:16:39;;;;;;;6.88;4.35;;;9.60;93.80;;;;;;5069437;28;20038;-70
2023/04/08 02:19:20;;;;;;;10.05;3.97;;;9.70;93.50;;;;;;5070626;28;20044;-68
2023/04/08 02:21:54;;;;;;;7.90;4.57;;;9.70;93.80;;;;;;5070332;28;20103;-71
2023/04/08 02:24:21;;;;;;;6.82;3.70;;;9.70;93.40;;;;;;5070759;28;20067;-71
2023/04/08 02:26:49;;;;;;;9.53;3.83;;;9.70;93.30;;;;;;5070548;28;20032;-70
2023/04/08 02:29:17;;;;;;;9.77;4.70;;;9.70;93.50;;;;;;5070476;28;20094;-70
2023/04/08 02:31:43;;;;;;;9.65;4.60;;;9.70;93.60;;;;;;5069175;28;20486;-70
2023/04/08 02:34:10;;;;;;;8.82;4.20;;;9.70;93.70;;;;;;5070372;28;20056;-70
2023/04/08 02:36:37;;;;;;;9.63;4.95;;;9.70;93.50;;;;;;5070743;28;20378;-70
2023/04/08 02:39:03;;;;;;;8.50;4.50;;;9.60;93.70;;;;;;5070701;28;20512;-70
2023/04/08 02:41:30;;;;;;;9.82;4.65;;;9.70;93.70;;;;;;5070590;28;20555;-71
2023/04/08 02:43:56;;;;;;;8.10;4.45;;;9.60;93.60;;;;;;5070319;28;20029;-71
2023/04/08 02:46:21;;;;;;;10.18;4.25;;;9.60;93.90;;;;;;5070329;28;20362;-70
2023/04/08 02:48:47;;;;;;;8.38;4.63;;;9.60;93.90;;;;;;5069035;28;20458;-71
2023/04/08 02:51:12;;;;;;;7.13;3.90;;;9.60;94.00;;;;;;5070801;28;20020;-71
2023/04/08 02:53:38;;;;;;;11.77;4.35;;;9.60;94.00;;;;;;5070206;28;20085;-71
2023/04/08 02:56:04;;;;;;;9.23;4.90;;;9.60;94.00;;;;;;5070088;28;20033;-70
2023/04/08 02:58:30;;;;;;;7.82;4.05;;;9.60;94.20;;;;;;5070595;28;20041;-71
2023/04/08 03:00:56;;;;;;;9.85;4.95;;;9.60;94.10;;;;;;5070238;28;20463;-71
2023/04/08 03:03:28;;;;;;;9.60;4.80;;;9.60;94.20;;;;;;5069909;28;20065;-70
2023/04/08 03:05:55;;;;;;;10.32;5.03;;;9.60;94.40;;;;;;5072768;28;20028;-70
2023/04/08 03:08:21;;;;;;;9.27;4.47;;;9.60;94.30;;;;;;5074022;28;20162;-70
2023/04/08 03:10:47;;;;;;;9.07;4.88;;;9.70;94.20;;;;;;5073712;28;20530;-70
2023/04/08 03:13:12;;;;;;;8.15;4.97;;;9.70;94.60;;;;;;5074064;28;20362;-71
2023/04/08 03:15:38;;;;;;;8.95;4.97;;;9.70;94.20;;;;;;5073139;28;20028;-70
2023/04/08 03:18:04;;;;;;;9.52;5.20;;;9.70;94.40;;;;;;5073914;28;20078;-71
2023/04/08 03:20:30;;;;;;;8.52;4.80;;;9.70;94.70;;;;;;5073645;28;20486;-70
2023/04/08 03:22:56;;;;;;;8.98;5.00;;;9.60;94.40;;;;;;5073625;28;20043;-70
2023/04/08 03:25:21;;;;;;;10.30;5.20;;;9.60;94.40;;;;;;5073534;28;20035;-70
2023/04/08 03:27:47;;;;;;;7.72;4.25;;;9.70;94.40;;;;;;5074083;28;20100;-70
2023/04/08 03:30:13;;;;;;;11.95;5.25;;;9.60;94.70;;;;;;5073830;28;20377;-71
2023/04/08 03:32:38;;;;;;;9.40;5.00;;;9.60;94.80;;;;;;5073163;28;20043;-70
2023/04/08 03:35:05;;;;;;;10.95;5.20;;;9.60;94.60;;;;;;5073514;28;20124;-70
2023/04/08 03:37:31;;;;;;;9.18;4.97;;;9.60;94.60;;;;;;5073585;28;20358;-72
2023/04/08 03:39:57;;;;;;;11.27;5.20;;;9.60;94.70;;;;;;5073219;28;20028;-71
2023/04/08 03:42:23;;;;;;;9.88;5.35;;;9.60;94.80;;;;;;5073800;28;20092;-71
2023/04/08 03:44:48;;;;;;;10.95;5.82;;;9.70;94.70;;;;;;5073587;28;20037;-70
2023/04/08 03:47:14;;;;;;;9.63;5.05;;;9.70;94.70;;;;;;5073409;28;20046;-70
2023/04/08 03:49:40;;;;;;;12.43;6.22;;;9.60;94.70;;;;;;5072952;28;20055;-72
2023/04/08 03:52:06;;;;;;;11.90;4.63;;;9.60;94.80;;;;;;5073157;28;20039;-72
2023/04/08 03:54:31;;;;;;;10.35;5.38;;;9.70;94.70;;;;;;5073557;28;20085;-71
2023/04/08 03:56:57;;;;;;;11.50;5.63;;;9.80;94.90;;;;;;5073065;28;20036;-70
2023/04/08 03:59:23;;;;;;;12.18;6.22;;;9.80;94.90;;;;;;5072187;28;20040;-73
2023/04/08 04:01:50;;;;;;;13.88;6.40;;;9.80;94.90;;;;;;5073431;28;20029;-71
2023/04/08 04:04:15;;;;;;;14.43;7.03;;;9.80;94.80;;;;;;5072208;28;20025;-71
2023/04/08 04:06:41;;;;;;;11.07;5.93;;;9.70;95.10;;;;;;5073458;28;20039;-70
2023/04/08 04:09:07;;;;;;;14.63;6.57;;;9.80;95.20;;;;;;5072935;28;20458;-70
2023/04/08 04:11:36;;;;;;;13.63;6.25;;;9.70;95.20;;;;;;5071451;28;20374;-71
2023/04/08 04:14:02;;;;;;;14.07;7.63;;;9.60;95.20;;;;;;5072491;28;20127;-70
2023/04/08 04:16:27;;;;;;;14.43;7.15;;;9.70;95.50;;;;;;5072715;28;20153;-71
2023/04/08 04:18:53;;;;;;;17.58;7.75;;;9.60;96.00;;;;;;5072937;28;20046;-71
2023/04/08 04:21:20;;;;;;;20.15;8.77;;;9.60;95.60;;;;;;5072514;28;20414;-71
2023/04/08 04:23:46;;;;;;;15.35;8.27;;;9.60;96.10;;;;;;5071984;28;20037;-72
2023/04/08 04:26:12;;;;;;;17.73;8.68;;;9.60;96.00;;;;;;5072903;28;20039;-72
2023/04/08 04:28:37;;;;;;;19.40;8.85;;;9.60;95.90;;;;;;5072802;28;20064;-71
2023/04/08 04:31:03;;;;;;;21.20;8.70;;;9.70;95.90;;;;;;5072432;28;20068;-70
2023/04/08 04:33:30;;;;;;;20.92;8.25;;;9.70;96.20;;;;;;5073122;28;20032;-70
2023/04/08 04:35:56;;;;;;;20.23;9.38;;;9.70;96.00;;;;;;5070738;28;20029;-71
2023/04/08 04:38:22;;;;;;;19.45;8.68;;;9.60;96.40;;;;;;5072542;28;20489;-72
2023/04/08 04:40:48;;;;;;;17.70;8.63;;;9.60;96.60;;;;;;5072295;28;20443;-72
2023/04/08 04:43:13;;;;;;;21.20;9.15;;;9.60;96.50;;;;;;5072436;28;20490;-71
2023/04/08 04:45:39;;;;;;;23.55;9.40;;;9.70;96.40;;;;;;5073143;28;20478;-72
2023/04/08 04:48:05;;;;;;;19.55;9.60;;;9.60;96.80;;;;;;5071076;28;20127;-71
2023/04/08 04:50:31;;;;;;;19.98;8.85;;;9.60;96.80;;;;;;5071052;28;20032;-70
2023/04/08 04:52:56;;;;;;;21.73;8.77;;;9.60;96.80;;;;;;5071840;28;20079;-70
2023/04/08 04:55:22;;;;;;;20.27;8.98;;;9.60;97.00;;;;;;5071849;28;20021;-71
2023/04/08 04:57:48;;;;;;;20.83;9.10;;;9.60;97.30;;;;;;5071922;28;20059;-72
2023/04/08 05:00:15;;;;;;;20.80;10.00;;;9.60;97.20;;;;;;5072343;28;20493;-71
2023/04/08 05:02:41;;;;;;;25.95;9.90;;;9.60;97.10;;;;;;5071086;28;20032;-70
2023/04/08 05:05:07;;;;;;;27.30;9.48;;;9.60;96.90;;;;;;5071850;28;20036;-71
2023/04/08 05:07:37;;;;;;;23.13;9.63;;;9.60;97.20;;;;;;5072025;28;20024;-71
2023/04/08 05:10:03;;;;;;;21.90;9.57;;;9.60;97.40;;;;;;5071630;28;20021;-70
2023/04/08 05:12:29;;;;;;;23.10;9.98;;;9.50;97.40;;;;;;5072126;28;20553;-70
2023/04/08 05:14:57;;;;;;;22.30;10.07;;;9.60;97.50;;;;;;5071799;28;20029;-71
2023/04/08 05:17:23;;;;;;;19.63;8.95;;;9.50;97.70;;;;;;5070220;28;20071;-70
2023/04/08 05:19:48;;;;;;;23.67;10.50;;;9.50;97.60;;;;;;5071069;28;20086;-70
2023/04/08 05:22:14;;;;;;;21.38;9.88;;;9.50;97.70;;;;;;5071629;28;20066;-69
2023/04/08 05:24:40;;;;;;;24.67;10.63;;;9.50;97.80;;;;;;5070712;28;20113;-71
2023/04/08 05:27:06;;;;;;;21.42;10.30;;;9.50;97.80;;;;;;5070595;28;20031;-70
2023/04/08 05:29:31;;;;;;;20.25;9.65;;;9.50;98.10;;;;;;5071218;28;20055;-72
2023/04/08 05:31:58;;;;;;;23.25;9.65;;;9.40;97.70;;;;;;5071268;28;20060;-72
2023/04/08 05:34:23;;;;;;;21.77;9.98;;;9.40;97.80;;;;;;5071320;28;20032;-72
2023/04/08 05:36:50;;;;;;;22.73;10.55;;;9.40;98.00;;;;;;5071108;28;20028;-71
2023/04/08 05:39:17;;;;;;;19.50;9.70;;;9.50;97.90;;;;;;5071514;28;20044;-72
2023/04/08 05:41:43;;;;;;;21.65;9.75;;;9.50;97.90;;;;;;5071275;28;20040;-72
2023/04/08 05:44:10;;;;;;;22.92;10.23;;;9.50;97.90;;;;;;5071232;28;20200;-71
2023/04/08 05:46:37;;;;;;;25.10;9.70;;;9.50;97.70;;;;;;5071148;28;20036;-72
2023/04/08 05:49:02;;;;;;;23.23;10.35;;;9.60;97.70;;;;;;5070985;28;20017;-71
2023/04/08 05:51:28;;;;;;;25.10;10.18;;;9.60;97.70;;;;;;5071440;28;20157;-72
2023/04/08 05:53:54;;;;;;;25.02;10.90;;;9.60;97.90;;;;;;5070951;28;20488;-71
2023/04/08 05:56:19;;;;;;;20.88;9.40;;;9.60;97.70;;;;;;5071022;28;20043;-71
2023/04/08 05:58:45;;;;;;;21.55;9.98;;;9.60;97.80;;;;;;5070871;28;20457;-71
2023/04/08 06:01:11;;;;;;;26.77;10.82;;;9.60;97.80;;;;;;5070826;28;20032;-71
2023/04/08 06:03:37;;;;;;;21.00;10.15;;;9.50;97.70;;;;;;5071385;28;20025;-71
2023/04/08 06:06:08;;;;;;;21.35;10.02;;;9.60;97.80;;;;;;5069747;28;20036;-70
2023/04/08 06:08:33;;;;;;;23.50;10.07;;;9.60;98.00;;;;;;5070883;28;20146;-71
2023/04/08 06:10:59;;;;;;;25.27;10.75;;;9.60;97.90;;;;;;5070952;28;20036;-71
2023/04/08 06:13:25;;;;;;;26.42;10.10;;;9.60;97.90;;;;;;5070778;28;20390;-71
2023/04/08 06:15:50;;;;;;;22.08;10.85;;;9.60;97.90;;;;;;5070487;28;20029;-71
2023/04/08 06:18:16;;;;;;;24.45;10.60;;;9.60;98.00;;;;;;5070112;28;20081;-71
2023/04/08 06:20:42;;;;;;;22.58;10.32;;;9.60;97.90;;;;;;5070552;28;20034;-71
2023/04/08 06:23:08;;;;;;;27.77;11.32;;;9.70;97.80;;;;;;5069180;28;20024;-71
2023/04/08 06:25:33;;;;;;;24.35;11.48;;;9.70;97.90;;;;;;5070486;28;20037;-72
2023/04/08 06:27:59;;;;;;;25.13;11.32;;;9.70;98.00;;;;;;5070489;28;20086;-72
2023/04/08 06:30:25;;;;;;;25.83;10.45;;;9.60;97.90;;;;;;5069791;28;20053;-72
2023/04/08 06:32:50;;;;;;;22.90;10.43;;;9.60;98.00;;;;;;5070584;28;20370;-71
2023/04/08 06:35:16;;;;;;;26.05;11.57;;;9.50;98.20;;;;;;5069142;28;20028;-70
2023/04/08 06:37:42;;;;;;;24.77;10.57;;;9.50;98.20;;;;;;5070804;28;20454;-72
2023/04/08 06:40:08;;;;;;;23.65;11.40;;;9.60;98.30;;;;;;5076896;28;20526;-70
2023/04/08 06:42:33;;;;;;;26.00;10.93;;;9.50;98.20;;;;;;5077315;28;20028;-70
2023/04/08 06:44:59;;;;;;;22.58;10.63;;;9.50;98.20;;;;;;5076930;28;20396;-71
2023/04/08 06:47:25;;;;;;;19.02;9.23;;;9.50;98.40;;;;;;5077182;28;20115;-69
2023/04/08 06:49:51;;;;;;;21.50;11.40;;;9.60;98.30;;;;;;5076899;28;20029;-70
2023/04/08 06:52:16;;;;;;;25.33;10.95;;;9.70;98.10;;;;;;5076769;28;20029;-70
2023/04/08 06:54:42;;;;;;;25.58;12.07;;;9.70;98.30;;;;;;5077071;28;20025;-71
2023/04/08 06:57:08;;;;;;;20.48;10.70;;;9.70;98.10;;;;;;5076736;28;20532;-73
2023/04/08 06:59:37;;;;;;;24.33;11.65;;;9.70;98.00;;;;;;5076816;28;20120;-72
2023/04/08 07:02:02;;;;;;;22.88;10.82;;;9.80;98.00;;;;;;5076645;28;20029;-71
2023/04/08 07:04:28;;;;;;;22.55;10.43;;;9.80;98.10;;;;;;5076752;28;20035;-71
2023/04/08 07:06:53;;;;;;;23.75;10.13;;;9.80;98.30;;;;;;5076863;28;20430;-70
2023/04/08 07:09:19;;;;;;;21.02;9.73;;;9.70;98.40;;;;;;5077228;28;20025;-70
2023/04/08 07:11:45;;;;;;;21.30;10.52;;;9.80;98.30;;;;;;5076864;28;20088;-74
2023/04/08 07:14:11;;;;;;;27.48;10.48;;;9.70;98.20;;;;;;5075839;28;20041;-73
2023/04/08 07:16:36;;;;;;;23.35;10.82;;;9.70;98.30;;;;;;5076798;28;20060;-72
2023/04/08 07:19:02;;;;;;;20.70;9.90;;;9.70;98.30;;;;;;5076879;28;20099;-73
2023/04/08 07:21:29;;;;;;;19.08;9.50;;;9.80;98.40;;;;;;5077683;28;20350;-71
2023/04/08 07:23:55;;;;;;;26.65;11.75;;;9.80;98.50;;;;;;5076744;28;20469;-72
2023/04/08 07:26:22;;;;;;;22.55;10.73;;;9.80;98.50;;;;;;5076381;28;20063;-71
2023/04/08 07:28:48;;;;;;;18.00;10.05;;;9.90;98.70;;;;;;5076314;28;20024;-71
2023/04/08 07:31:17;;;;;;;22.55;10.18;;;10.00;98.10;;;;;;5076155;28;20498;-71
2023/04/08 07:33:45;;;;;;;20.27;10.30;;;9.90;98.40;;;;;;5076765;28;20028;-71
2023/04/08 07:36:12;;;;;;;23.98;9.40;;;9.90;98.40;;;;;;5075137;28;20136;-69
2023/04/08 07:38:38;;;;;;;18.15;9.27;;;9.90;98.20;;;;;;5086954;28;20032;-69
2023/04/08 07:41:04;;;;;;;18.48;9.70;;;10.00;97.90;;;;;;5096451;28;20117;-69
2023/04/08 07:43:31;;;;;;;21.15;9.45;;;10.00;97.70;;;;;;5096603;28;20465;-69
2023/04/08 07:46:04;;;;;;;19.35;10.07;;;10.10;97.70;;;;;;5096786;28;20028;-69
2023/04/08 07:48:33;;;;;;;17.67;9.35;;;10.00;97.70;;;;;;5097011;28;20498;-69
2023/04/08 07:51:04;;;;;;;22.00;9.95;;;10.10;97.80;;;;;;5092655;28;20369;-71
2023/04/08 07:53:30;;;;;;;19.30;10.50;;;10.20;97.60;;;;;;5093202;28;20130;-70
2023/04/08 07:55:56;;;;;;;18.83;9.80;;;10.20;97.60;;;;;;5093132;28;20064;-69
2023/04/08 07:58:22;;;;;;;20.52;10.30;;;10.20;97.50;;;;;;5093187;28;20044;-69
2023/04/08 08:00:48;;;;;;;25.27;10.50;;;10.20;97.60;;;;;;5093150;28;20024;-68
2023/04/08 08:03:14;;;;;;;19.23;9.50;;;10.20;97.60;;;;;;5093361;28;20090;-70
2023/04/08 08:05:40;;;;;;;21.00;9.52;;;10.30;97.50;;;;;;5093065;28;20036;-69
2023/04/08 08:08:06;;;;;;;19.73;10.32;;;10.20;97.40;;;;;;5093724;28;20297;-68
2023/04/08 08:10:32;;;;;;;23.05;10.35;;;10.30;97.50;;;;;;5092117;28;20039;-69
2023/04/08 08:12:58;;;;;;;20.13;10.20;;;10.30;97.40;;;;;;5092748;28;20496;-67
2023/04/08 08:15:24;;;;;;;21.95;10.80;;;10.30;97.50;;;;;;5093215;28;20070;-68
2023/04/08 08:17:50;;;;;;;20.95;10.60;;;10.30;97.40;;;;;;5091647;28;20112;-66
2023/04/08 08:20:16;;;;;;;22.63;10.38;;;10.30;97.60;;;;;;5092690;28;20028;-69
2023/04/08 08:22:43;;;;;;;18.75;10.18;;;10.30;97.50;;;;;;5092665;28;20429;-68
2023/04/08 08:25:09;;;;;;;20.40;10.40;;;10.30;97.40;;;;;;5092603;28;20020;-69
2023/04/08 08:27:35;;;;;;;24.52;10.82;;;10.40;97.40;;;;;;5092964;28;20088;-70
2023/04/08 08:30:01;;;;;;;22.85;10.85;;;10.40;97.30;;;;;;5091193;28;20386;-70
2023/04/08 08:32:27;;;;;;;26.42;12.45;;;10.50;97.30;;;;;;5092485;28;20047;-71
2023/04/08 08:34:52;;;;;;;23.83;10.45;;;10.40;97.30;;;;;;5092916;28;20473;-69
2023/04/08 08:37:18;;;;;;;20.25;10.65;;;10.50;97.40;;;;;;5092551;28;20472;-70
2023/04/08 08:39:44;;;;;;;22.40;11.05;;;10.50;97.30;;;;;;5092867;28;20035;-70
2023/04/08 08:42:24;;;;;;;25.35;11.98;;;10.50;97.30;;;;;;5092437;28;20046;-70
2023/04/08 08:44:50;;;;;;;22.88;10.40;;;10.60;97.30;;;;;;5092291;28;20561;-70
2023/04/08 08:47:16;;;;;;;22.15;10.52;;;10.60;97.30;;;;;;5091259;28;20122;-69
2023/04/08 08:49:41;;;;;;;24.30;11.20;;;10.60;97.30;;;;;;5091874;28;20147;-70
2023/04/08 08:52:07;;;;;;;24.02;11.32;;;10.60;97.40;;;;;;5091007;28;20249;-70
2023/04/08 08:54:33;;;;;;;24.48;11.50;;;10.60;97.30;;;;;;5092412;28;20024;-70
2023/04/08 08:57:00;;;;;;;25.05;11.63;;;10.60;97.40;;;;;;5091824;28;20717;-70
2023/04/08 08:59:26;;;;;;;24.23;11.90;;;10.70;97.40;;;;;;5092124;28;20438;-70
2023/04/08 09:01:51;;;;;;;28.65;12.27;;;10.70;97.20;;;;;;5090491;28;20032;-70
2023/04/08 09:04:19;;;;;;;28.52;12.93;;;10.60;97.30;;;;;;5091850;28;20098;-68
2023/04/08 09:06:47;;;;;;;34.53;13.07;;;10.60;97.30;;;;;;5087419;28;20450;-68
2023/04/08 09:09:13;;;;;;;20.42;10.52;;;10.60;97.30;;;;;;5072651;28;20055;-69
2023/04/08 09:11:44;;;;;;;23.25;12.13;;;10.60;97.40;;;;;;5072532;28;20116;-69
2023/04/08 09:14:20;;;;;;;25.75;12.02;;;10.60;97.60;;;;;;5072618;28;20396;-69
2023/04/08 09:16:46;;;;;;;23.15;11.15;;;10.60;97.80;;;;;;5072388;28;20040;-71
2023/04/08 09:19:12;;;;;;;27.83;12.85;;;10.60;97.60;;;;;;5071358;28;20028;-68
2023/04/08 09:21:39;;;;;;;32.10;12.38;;;10.60;97.60;;;;;;5072543;28;20024;-68
2023/04/08 09:24:06;;;;;;;30.83;12.57;;;10.60;97.60;;;;;;5072250;28;20064;-69
2023/04/08 09:26:32;;;;;;;25.55;12.32;;;10.60;97.60;;;;;;5072167;28;20035;-69
2023/04/08 09:29:05;;;;;;;25.70;11.20;;;10.70;97.70;;;;;;5072193;28;20101;-67
2023/04/08 09:31:33;;;;;;;24.83;11.02;;;10.70;97.50;;;;;;5071866;28;20064;-66
2023/04/08 09:34:01;;;;;;;;;;;10.70;97.60;;;;;;5072562;28;20412;-68
2023/04/08 09:36:27;;;;;;;24.80;11.32;;;10.70;97.70;;;;;;5072034;28;20254;-69
2023/04/08 09:38:54;;;;;;;23.15;11.77;;;10.80;97.80;;;;;;5071884;28;20026;-68
2023/04/08 09:41:20;;;;;;;29.67;13.18;;;10.80;97.60;;;;;;5071864;28;20045;-67
2023/04/08 09:43:54;;;;;;;25.30;12.50;;;10.80;97.50;;;;;;5071779;28;20032;-69
2023/04/08 09:46:43;;;;;;;38.55;15.30;;;10.80;97.50;;;;;;5071758;28;20035;-68
2023/04/08 09:49:17;;;;;;;24.10;12.23;;;10.80;97.60;;;;;;5041914;28;20024;-67
2023/04/08 09:51:52;;;;;;;27.27;11.98;;;10.80;97.70;;;;;;5070803;28;20316;-68
2023/04/08 09:54:22;;;;;;;25.83;12.50;;;10.90;97.60;;;;;;5071082;28;20025;-68
2023/04/08 09:56:57;;;;;;;27.35;12.07;;;10.90;97.50;;;;;;5070491;28;20036;-68
2023/04/08 09:59:29;;;;;;;32.10;13.27;;;11.00;97.60;;;;;;5070706;28;20518;-69
2023/04/08 10:01:56;;;;;;;28.50;12.50;;;11.00;97.60;;;;;;5070597;28;20463;-71
2023/04/08 10:04:25;;;;;;;28.45;13.40;;;11.00;97.50;;;;;;5070756;28;20051;-69
2023/04/08 10:06:56;;;;;;;25.02;11.20;;;11.00;97.50;;;;;;5070615;28;20677;-69
2023/04/08 10:09:22;;;;;;;26.55;11.77;;;11.00;97.30;;;;;;5069869;28;20446;-70
2023/04/08 10:11:49;;;;;;;25.33;12.30;;;11.10;97.50;;;;;;5070410;28;20109;-68
2023/04/08 10:14:15;;;;;;;32.67;13.27;;;11.10;97.30;;;;;;5070405;28;20382;-69
2023/04/08 10:16:41;;;;;;;26.20;12.15;;;11.00;97.30;;;;;;5070398;28;20036;-69
2023/04/08 10:19:40;;;;;;;23.27;11.85;;;11.00;97.40;;;;;;5070507;28;20473;-70
2023/04/08 10:22:28;;;;;;;29.65;11.93;;;11.00;97.30;;;;;;5064740;28;20466;-69
2023/04/08 10:25:15;;;;;;;28.30;11.77;;;11.00;97.40;;;;;;5060459;28;20048;-68
2023/04/08 10:27:42;;;;;;;23.58;11.07;;;11.00;97.40;;;;;;5070747;28;20106;-68
2023/04/08 10:30:26;;;;;;;25.60;11.73;;;11.00;97.30;;;;;;5069917;28;20500;-68
2023/04/08 10:32:59;;;;;;;28.13;11.57;;;11.00;97.60;;;;;;5069961;28;20416;-68
2023/04/08 10:35:29;;;;;;;22.83;11.60;;;11.10;97.60;;;;;;5069109;28;20028;-69
2023/04/08 10:37:55;;;;;;;23.73;12.07;;;11.10;97.30;;;;;;5070212;28;20029;-69
2023/04/08 10:40:21;;;;;;;26.60;10.57;;;11.20;97.40;;;;;;5069096;28;20043;-69
2023/04/08 10:42:46;;;;;;;25.30;11.85;;;11.20;97.40;;;;;;5069630;28;20048;-70
2023/04/08 10:45:18;;;;;;;24.70;11.90;;;11.10;97.30;;;;;;5070553;28;20024;-69
2023/04/08 10:47:44;;;;;;;22.27;11.18;;;11.10;97.30;;;;;;5070151;28;20029;-68
2023/04/08 10:50:14;;;;;;;25.38;11.02;;;11.10;97.50;;;;;;5070072;28;20461;-68
2023/04/08 10:52:50;;;;;;;24.60;11.43;;;11.20;97.30;;;;;;5070053;28;20477;-68
2023/04/08 10:55:25;;;;;;;22.92;11.20;;;11.30;97.20;;;;;;5070215;28;20462;-68
2023/04/08 10:57:50;;;;;;;23.20;11.73;;;11.30;97.30;;;;;;5070144;28;20276;-68
2023/04/08 11:00:38;;;;;;;30.73;12.43;;;11.30;97.10;;;;;;5070466;28;20028;-67
2023/04/08 11:03:07;;;;;;;25.10;10.68;;;11.30;97.10;;;;;;5069931;28;20402;-68
2023/04/08 11:05:33;;;;;;;23.17;11.27;;;11.30;97.20;;;;;;5069807;28;20044;-68
2023/04/08 11:08:00;;;;;;;24.73;12.07;;;11.40;97.10;;;;;;5069849;28;20032;-69
2023/04/08 11:10:27;;;;;;;29.08;11.98;;;11.40;97.10;;;;;;5069894;28;20024;-69
2023/04/08 11:12:54;;;;;;;22.77;12.23;;;11.40;97.10;;;;;;5069724;28;20017;-68
2023/04/08 11:15:23;;;;;;;24.70;11.23;;;11.40;97.40;;;;;;5070178;28;20021;-68
2023/04/08 11:17:50;;;;;;;26.17;12.00;;;11.40;97.10;;;;;;5070041;28;20037;-68
2023/04/08 11:20:16;;;;;;;26.58;11.40;;;11.40;97.20;;;;;;5069824;28;20121;-68
2023/04/08 11:22:43;;;;;;;24.13;11.93;;;11.40;97.20;;;;;;5069611;28;20385;-68
2023/04/08 11:25:10;;;;;;;20.98;11.63;;;11.40;97.10;;;;;;5071501;28;20093;-69
2023/04/08 11:27:37;;;;;;;33.58;13.88;;;11.40;97.00;;;;;;5074161;28;20024;-68
2023/04/08 11:30:04;;;;;;;24.85;11.38;;;11.40;97.00;;;;;;5072168;28;20045;-68
2023/04/08 11:32:30;;;;;;;24.90;12.13;;;11.40;97.10;;;;;;5073197;28;20374;-67
2023/04/08 11:35:00;;;;;;;23.63;12.68;;;11.40;97.00;;;;;;5073318;28;20037;-70
2023/04/08 11:37:26;;;;;;;37.00;17.65;;;11.40;97.30;;;;;;5073304;28;20097;-69
2023/04/08 11:39:54;;;;;;;23.63;11.55;;;11.40;97.30;;;;;;5073086;28;20381;-68
2023/04/08 11:42:27;;;;;;;23.25;11.80;;;11.30;97.30;;;;;;5073568;28;20458;-68
2023/04/08 11:44:53;;;;;;;29.55;12.82;;;11.30;97.30;;;;;;5073163;28;20032;-68
2023/04/08 11:47:19;;;;;;;25.77;12.63;;;11.30;97.20;;;;;;5073197;28;20039;-68
2023/04/08 11:49:45;;;;;;;25.30;12.60;;;11.40;97.30;;;;;;5071869;28;20063;-69
2023/04/08 11:52:11;;;;;;;21.05;10.82;;;11.40;97.20;;;;;;5072931;28;20039;-69
2023/04/08 11:54:41;;;;;;;19.33;10.80;;;11.40;97.30;;;;;;5073509;28;20099;-69
2023/04/08 11:57:08;;;;;;;21.92;11.45;;;11.40;97.20;;;;;;5073020;28;20098;-69
2023/04/08 11:59:35;;;;;;;23.60;12.15;;;11.50;97.10;;;;;;5071750;28;20102;-69
2023/04/08 12:02:02;;;;;;;21.60;10.95;;;11.40;97.10;;;;;;5072956;28;20161;-68
2023/04/08 12:04:28;;;;;;;24.35;10.80;;;11.40;97.20;;;;;;5073336;28;20103;-69
2023/04/08 12:06:54;;;;;;;23.02;12.57;;;11.60;97.10;;;;;;5072770;28;20395;-69
2023/04/08 12:09:21;;;;;;;19.67;10.98;;;11.50;97.20;;;;;;5073168;28;20457;-68
2023/04/08 12:11:47;;;;;;;24.13;11.68;;;11.40;97.10;;;;;;5072640;28;20204;-68
2023/04/08 12:14:12;;;;;;;24.42;11.68;;;11.40;97.70;;;;;;5072671;28;20048;-69
2023/04/08 12:16:38;;;;;;;23.85;11.65;;;11.50;97.10;;;;;;5072664;28;20410;-68
2023/04/08 12:19:04;;;;;;;23.42;11.88;;;11.40;97.30;;;;;;5072453;28;20024;-68
2023/04/08 12:21:31;;;;;;;22.90;11.88;;;11.50;97.20;;;;;;5071951;28;20032;-68
2023/04/08 12:23:56;;;;;;;24.70;12.07;;;11.50;97.10;;;;;;5071317;28;20028;-68
2023/04/08 12:26:23;;;;;;;20.75;11.30;;;11.50;97.30;;;;;;5072387;28;20102;-69
2023/04/08 12:28:48;;;;;;;25.17;12.07;;;11.60;97.60;;;;;;5071265;28;20039;-69
2023/04/08 12:31:14;;;;;;;23.20;11.88;;;11.60;97.20;;;;;;5072057;28;20033;-67
2023/04/08 12:33:40;;;;;;;26.98;10.77;;;11.50;97.10;;;;;;5072795;28;20032;-68
2023/04/08 12:36:05;;;;;;;26.73;12.07;;;11.50;97.10;;;;;;5071154;28;20062;-69
2023/04/08 12:38:32;;;;;;;28.75;11.90;;;11.50;97.10;;;;;;5072102;28;20025;-70
2023/04/08 12:40:58;;;;;;;22.15;12.02;;;11.50;97.10;;;;;;5072305;28;20035;-67